sensor_id;sensor_type;location;lat;lon;timestamp;P1;durP1;ratioP1;P2;durP2;ratioP2
44272;SDS011;29964;17.182;-96.766;2023-02-28T00:02:20;0.85;;;0.68;;
44272;SDS011;29964;17.182;-96.766;2023-02-28T00:04:46;1.05;;;0.75;;
44272;SDS011;29964;17.182;-96.766;2023-02-28T00:07:18;1.45;;;0.63;;
44272;SDS011;29964;17.182;-96.766;2023-02-28T00:09:45;0.55;;;0.50;;
44272;SDS011;29964;17.182;-96.766;2023-02-28T00:12:12;1.98;;;0.90;;
44272;SDS011;29964;17.182;-96.766;2023-02-28T00:14:39;1.42;;;0.98;;
44272;SDS011;29964;17.182;-96.766;2023-02-28T00:17:05;1.20;;;0.90;;
44272;SDS011;29964;17.182;-96.766;2023-02-28T00:19:32;3.17;;;1.10;;
44272;SDS011;29964;17.182;-96.766;2023-02-28T00:21:59;4.95;;;1.13;;
44272;SDS011;29964;17.182;-96.766;2023-02-28T00:24:25;1.55;;;0.63;;
44272;SDS011;29964;17.182;-96.766;2023-02-28T00:26:52;10.68;;;1.13;;
44272;SDS011;29964;17.182;-96.766;2023-02-28T00:29:19;1.60;;;0.95;;
44272;SDS011;29964;17.182;-96.766;2023-02-28T00:31:45;2.20;;;0.85;;
44272;SDS011;29964;17.182;-96.766;2023-02-28T00:34:12;2.03;;;1.00;;
44272;SDS011;29964;17.182;-96.766;2023-02-28T00:36:39;1.55;;;0.70;;
44272;SDS011;29964;17.182;-96.766;2023-02-28T00:39:10;2.85;;;0.70;;
44272;SDS011;29964;17.182;-96.766;2023-02-28T00:41:37;0.93;;;0.60;;
44272;SDS011;29964;17.182;-96.766;2023-02-28T00:44:04;1.52;;;0.90;;
44272;SDS011;29964;17.182;-96.766;2023-02-28T00:46:33;2.55;;;0.98;;
44272;SDS011;29964;17.182;-96.766;2023-02-28T00:48:59;0.70;;;0.55;;
44272;SDS011;29964;17.182;-96.766;2023-02-28T00:51:26;1.60;;;0.75;;
44272;SDS011;29964;17.182;-96.766;2023-02-28T00:53:53;3.70;;;1.02;;
44272;SDS011;29964;17.182;-96.766;2023-02-28T00:56:20;1.77;;;1.23;;
44272;SDS011;29964;17.182;-96.766;2023-02-28T00:58:46;5.80;;;1.55;;
44272;SDS011;29964;17.182;-96.766;2023-02-28T01:01:13;3.80;;;2.03;;
44272;SDS011;29964;17.182;-96.766;2023-02-28T01:03:40;4.15;;;2.00;;
44272;SDS011;29964;17.182;-96.766;2023-02-28T01:06:07;14.85;;;2.65;;
44272;SDS011;29964;17.182;-96.766;2023-02-28T01:08:34;4.03;;;2.20;;
44272;SDS011;29964;17.182;-96.766;2023-02-28T01:11:10;11.50;;;2.17;;
44272;SDS011;29964;17.182;-96.766;2023-02-28T01:13:37;8.35;;;3.00;;
44272;SDS011;29964;17.182;-96.766;2023-02-28T01:16:04;7.85;;;2.25;;
44272;SDS011;29964;17.182;-96.766;2023-02-28T01:18:31;24.42;;;2.88;;
44272;SDS011;29964;17.182;-96.766;2023-02-28T01:20:57;3.53;;;2.20;;
44272;SDS011;29964;17.182;-96.766;2023-02-28T01:23:24;14.30;;;2.72;;
44272;SDS011;29964;17.182;-96.766;2023-02-28T01:25:51;9.02;;;3.08;;
44272;SDS011;29964;17.182;-96.766;2023-02-28T01:28:18;4.55;;;2.58;;
44272;SDS011;29964;17.182;-96.766;2023-02-28T01:30:51;6.05;;;3.08;;
44272;SDS011;29964;17.182;-96.766;2023-02-28T01:33:19;4.27;;;2.47;;
44272;SDS011;29964;17.182;-96.766;2023-02-28T01:35:46;4.13;;;2.27;;
44272;SDS011;29964;17.182;-96.766;2023-02-28T01:38:13;4.33;;;3.10;;
44272;SDS011;29964;17.182;-96.766;2023-02-28T01:40:39;12.93;;;3.00;;
44272;SDS011;29964;17.182;-96.766;2023-02-28T01:43:16;7.43;;;2.33;;
44272;SDS011;29964;17.182;-96.766;2023-02-28T01:45:45;3.80;;;2.40;;
44272;SDS011;29964;17.182;-96.766;2023-02-28T01:48:12;5.03;;;3.00;;
44272;SDS011;29964;17.182;-96.766;2023-02-28T01:50:39;3.97;;;2.40;;
44272;SDS011;29964;17.182;-96.766;2023-02-28T01:53:09;4.97;;;2.80;;
44272;SDS011;29964;17.182;-96.766;2023-02-28T01:55:37;5.67;;;2.63;;
44272;SDS011;29964;17.182;-96.766;2023-02-28T01:58:04;3.40;;;2.43;;
44272;SDS011;29964;17.182;-96.766;2023-02-28T02:00:32;6.00;;;2.33;;
44272;SDS011;29964;17.182;-96.766;2023-02-28T02:02:59;5.70;;;3.07;;
44272;SDS011;29964;17.182;-96.766;2023-02-28T02:05:28;3.57;;;2.30;;
44272;SDS011;29964;17.182;-96.766;2023-02-28T02:08:06;9.33;;;3.00;;
44272;SDS011;29964;17.182;-96.766;2023-02-28T02:10:34;7.77;;;3.33;;
44272;SDS011;29964;17.182;-96.766;2023-02-28T02:13:05;9.23;;;2.77;;
44272;SDS011;29964;17.182;-96.766;2023-02-28T02:15:36;5.30;;;2.83;;
44272;SDS011;29964;17.182;-96.766;2023-02-28T02:18:18;21.17;;;3.27;;
44272;SDS011;29964;17.182;-96.766;2023-02-28T02:21:01;3.47;;;2.33;;
44272;SDS011;29964;17.182;-96.766;2023-02-28T02:29:01;2.90;;;1.73;;
44272;SDS011;29964;17.182;-96.766;2023-02-28T02:31:56;3.37;;;2.20;;
44272;SDS011;29964;17.182;-96.766;2023-02-28T02:37:11;4.50;;;2.57;;
44272;SDS011;29964;17.182;-96.766;2023-02-28T02:39:44;9.87;;;3.33;;
44272;SDS011;29964;17.182;-96.766;2023-02-28T02:42:15;3.87;;;2.17;;
44272;SDS011;29964;17.182;-96.766;2023-02-28T02:44:50;3.37;;;2.23;;
44272;SDS011;29964;17.182;-96.766;2023-02-28T02:47:19;6.22;;;3.10;;
44272;SDS011;29964;17.182;-96.766;2023-02-28T02:49:48;5.87;;;3.20;;
44272;SDS011;29964;17.182;-96.766;2023-02-28T02:52:16;4.77;;;3.23;;
44272;SDS011;29964;17.182;-96.766;2023-02-28T02:54:46;5.50;;;3.10;;
44272;SDS011;29964;17.182;-96.766;2023-02-28T02:57:57;4.67;;;3.13;;
44272;SDS011;29964;17.182;-96.766;2023-02-28T03:00:05;3.87;;;2.57;;
44272;SDS011;29964;17.182;-96.766;2023-02-28T03:02:35;6.33;;;2.70;;
44272;SDS011;29964;17.182;-96.766;2023-02-28T03:05:04;7.30;;;3.23;;
44272;SDS011;29964;17.182;-96.766;2023-02-28T03:07:32;3.93;;;2.83;;
44272;SDS011;29964;17.182;-96.766;2023-02-28T03:09:59;3.57;;;2.47;;
44272;SDS011;29964;17.182;-96.766;2023-02-28T03:12:35;6.63;;;3.23;;
44272;SDS011;29964;17.182;-96.766;2023-02-28T03:15:24;5.93;;;3.13;;
44272;SDS011;29964;17.182;-96.766;2023-02-28T03:18:10;7.63;;;3.43;;
44272;SDS011;29964;17.182;-96.766;2023-02-28T03:20:46;5.40;;;3.10;;
44272;SDS011;29964;17.182;-96.766;2023-02-28T03:23:17;9.17;;;3.27;;
44272;SDS011;29964;17.182;-96.766;2023-02-28T03:25:54;5.23;;;2.37;;
44272;SDS011;29964;17.182;-96.766;2023-02-28T03:28:28;7.73;;;2.13;;
44272;SDS011;29964;17.182;-96.766;2023-02-28T03:31:07;3.03;;;1.60;;
44272;SDS011;29964;17.182;-96.766;2023-02-28T03:33:37;1.87;;;0.97;;
44272;SDS011;29964;17.182;-96.766;2023-02-28T03:36:09;1.80;;;1.40;;
44272;SDS011;29964;17.182;-96.766;2023-02-28T03:39:11;1.40;;;1.10;;
44272;SDS011;29964;17.182;-96.766;2023-02-28T03:41:45;2.53;;;1.03;;
44272;SDS011;29964;17.182;-96.766;2023-02-28T03:44:20;2.33;;;0.90;;
44272;SDS011;29964;17.182;-96.766;2023-02-28T03:49:42;2.47;;;1.33;;
44272;SDS011;29964;17.182;-96.766;2023-02-28T03:52:11;8.90;;;1.27;;
44272;SDS011;29964;17.182;-96.766;2023-02-28T03:54:41;1.13;;;0.87;;
44272;SDS011;29964;17.182;-96.766;2023-02-28T03:57:15;1.83;;;0.80;;
44272;SDS011;29964;17.182;-96.766;2023-02-28T04:02:35;3.00;;;1.00;;
44272;SDS011;29964;17.182;-96.766;2023-02-28T04:05:02;1.90;;;0.93;;
44272;SDS011;29964;17.182;-96.766;2023-02-28T04:07:32;1.57;;;0.73;;
44272;SDS011;29964;17.182;-96.766;2023-02-28T04:09:59;1.53;;;0.50;;
44272;SDS011;29964;17.182;-96.766;2023-02-28T04:12:26;0.87;;;0.60;;
44272;SDS011;29964;17.182;-96.766;2023-02-28T04:14:53;1.47;;;0.73;;
44272;SDS011;29964;17.182;-96.766;2023-02-28T04:17:22;1.67;;;1.10;;
44272;SDS011;29964;17.182;-96.766;2023-02-28T04:19:48;0.90;;;0.77;;
44272;SDS011;29964;17.182;-96.766;2023-02-28T04:22:15;0.80;;;0.60;;
44272;SDS011;29964;17.182;-96.766;2023-02-28T04:24:43;0.43;;;0.37;;
44272;SDS011;29964;17.182;-96.766;2023-02-28T04:27:09;0.87;;;0.50;;
44272;SDS011;29964;17.182;-96.766;2023-02-28T04:29:36;1.40;;;1.00;;
44272;SDS011;29964;17.182;-96.766;2023-02-28T04:32:03;3.83;;;1.43;;
44272;SDS011;29964;17.182;-96.766;2023-02-28T04:34:30;2.17;;;0.83;;
44272;SDS011;29964;17.182;-96.766;2023-02-28T04:36:58;1.00;;;0.70;;
44272;SDS011;29964;17.182;-96.766;2023-02-28T04:39:25;1.00;;;0.67;;
44272;SDS011;29964;17.182;-96.766;2023-02-28T04:41:52;1.10;;;0.70;;
44272;SDS011;29964;17.182;-96.766;2023-02-28T04:44:19;1.83;;;1.23;;
44272;SDS011;29964;17.182;-96.766;2023-02-28T04:46:47;0.87;;;0.53;;
44272;SDS011;29964;17.182;-96.766;2023-02-28T04:49:14;0.83;;;0.53;;
44272;SDS011;29964;17.182;-96.766;2023-02-28T04:51:41;0.67;;;0.50;;
44272;SDS011;29964;17.182;-96.766;2023-02-28T04:54:08;1.20;;;0.80;;
44272;SDS011;29964;17.182;-96.766;2023-02-28T04:56:35;1.20;;;0.90;;
44272;SDS011;29964;17.182;-96.766;2023-02-28T04:59:02;2.10;;;1.07;;
44272;SDS011;29964;17.182;-96.766;2023-02-28T05:01:32;0.30;;;0.30;;
44272;SDS011;29964;17.182;-96.766;2023-02-28T05:04:00;1.67;;;0.83;;
44272;SDS011;29964;17.182;-96.766;2023-02-28T05:06:28;2.67;;;1.00;;
44272;SDS011;29964;17.182;-96.766;2023-02-28T05:08:55;1.00;;;0.57;;
44272;SDS011;29964;17.182;-96.766;2023-02-28T05:11:29;2.67;;;0.30;;
44272;SDS011;29964;17.182;-96.766;2023-02-28T05:14:08;1.23;;;1.00;;
44272;SDS011;29964;17.182;-96.766;2023-02-28T05:16:35;0.87;;;0.57;;
44272;SDS011;29964;17.182;-96.766;2023-02-28T05:19:02;1.87;;;0.90;;
44272;SDS011;29964;17.182;-96.766;2023-02-28T05:21:30;5.40;;;1.20;;
44272;SDS011;29964;17.182;-96.766;2023-02-28T05:23:58;1.80;;;1.00;;
44272;SDS011;29964;17.182;-96.766;2023-02-28T05:26:25;2.00;;;0.90;;
44272;SDS011;29964;17.182;-96.766;2023-02-28T05:28:52;2.67;;;1.07;;
44272;SDS011;29964;17.182;-96.766;2023-02-28T05:31:18;0.60;;;0.53;;
44272;SDS011;29964;17.182;-96.766;2023-02-28T05:33:45;1.27;;;0.90;;
44272;SDS011;29964;17.182;-96.766;2023-02-28T05:36:12;1.37;;;0.87;;
44272;SDS011;29964;17.182;-96.766;2023-02-28T05:38:39;1.47;;;1.20;;
44272;SDS011;29964;17.182;-96.766;2023-02-28T05:41:06;1.23;;;0.53;;
44272;SDS011;29964;17.182;-96.766;2023-02-28T05:43:33;1.70;;;1.03;;
44272;SDS011;29964;17.182;-96.766;2023-02-28T05:46:09;1.13;;;0.70;;
44272;SDS011;29964;17.182;-96.766;2023-02-28T05:48:37;6.47;;;1.50;;
44272;SDS011;29964;17.182;-96.766;2023-02-28T05:51:04;0.93;;;0.57;;
44272;SDS011;29964;17.182;-96.766;2023-02-28T05:53:32;0.73;;;0.67;;
44272;SDS011;29964;17.182;-96.766;2023-02-28T05:55:59;0.87;;;0.53;;
44272;SDS011;29964;17.182;-96.766;2023-02-28T05:58:25;3.33;;;1.00;;
44272;SDS011;29964;17.182;-96.766;2023-02-28T06:00:59;0.73;;;0.63;;
44272;SDS011;29964;17.182;-96.766;2023-02-28T06:03:26;0.27;;;0.27;;
44272;SDS011;29964;17.182;-96.766;2023-02-28T06:05:53;1.10;;;0.63;;
44272;SDS011;29964;17.182;-96.766;2023-02-28T06:08:20;1.60;;;0.93;;
44272;SDS011;29964;17.182;-96.766;2023-02-28T06:10:46;0.97;;;0.53;;
44272;SDS011;29964;17.182;-96.766;2023-02-28T06:13:13;0.53;;;0.40;;
44272;SDS011;29964;17.182;-96.766;2023-02-28T06:15:40;1.77;;;0.97;;
44272;SDS011;29964;17.182;-96.766;2023-02-28T06:18:07;1.70;;;0.57;;
44272;SDS011;29964;17.182;-96.766;2023-02-28T06:20:34;0.60;;;0.50;;
44272;SDS011;29964;17.182;-96.766;2023-02-28T06:23:01;0.67;;;0.53;;
44272;SDS011;29964;17.182;-96.766;2023-02-28T06:25:28;1.17;;;0.80;;
44272;SDS011;29964;17.182;-96.766;2023-02-28T06:27:55;1.50;;;0.50;;
44272;SDS011;29964;17.182;-96.766;2023-02-28T06:30:21;1.10;;;0.57;;
44272;SDS011;29964;17.182;-96.766;2023-02-28T06:32:51;1.13;;;0.73;;
44272;SDS011;29964;17.182;-96.766;2023-02-28T06:35:17;0.97;;;0.77;;
44272;SDS011;29964;17.182;-96.766;2023-02-28T06:37:44;0.97;;;0.57;;
44272;SDS011;29964;17.182;-96.766;2023-02-28T06:40:12;0.67;;;0.50;;
44272;SDS011;29964;17.182;-96.766;2023-02-28T06:42:39;2.50;;;1.27;;
44272;SDS011;29964;17.182;-96.766;2023-02-28T06:45:06;0.83;;;0.70;;
44272;SDS011;29964;17.182;-96.766;2023-02-28T06:47:35;1.37;;;0.90;;
44272;SDS011;29964;17.182;-96.766;2023-02-28T06:50:02;1.13;;;0.80;;
44272;SDS011;29964;17.182;-96.766;2023-02-28T06:52:28;1.80;;;0.70;;
44272;SDS011;29964;17.182;-96.766;2023-02-28T06:54:55;1.40;;;0.70;;
44272;SDS011;29964;17.182;-96.766;2023-02-28T06:57:28;1.87;;;0.97;;
44272;SDS011;29964;17.182;-96.766;2023-02-28T06:59:59;1.07;;;0.80;;
44272;SDS011;29964;17.182;-96.766;2023-02-28T07:02:27;1.30;;;1.00;;
44272;SDS011;29964;17.182;-96.766;2023-02-28T07:04:53;1.30;;;0.83;;
44272;SDS011;29964;17.182;-96.766;2023-02-28T07:07:20;2.90;;;0.70;;
44272;SDS011;29964;17.182;-96.766;2023-02-28T07:09:47;0.97;;;0.77;;
44272;SDS011;29964;17.182;-96.766;2023-02-28T07:12:14;0.60;;;0.50;;
44272;SDS011;29964;17.182;-96.766;2023-02-28T07:14:40;0.37;;;0.37;;
44272;SDS011;29964;17.182;-96.766;2023-02-28T07:17:08;1.40;;;0.80;;
44272;SDS011;29964;17.182;-96.766;2023-02-28T07:19:36;1.17;;;0.90;;
44272;SDS011;29964;17.182;-96.766;2023-02-28T07:22:02;0.67;;;0.67;;
44272;SDS011;29964;17.182;-96.766;2023-02-28T07:24:29;0.50;;;0.50;;
44272;SDS011;29964;17.182;-96.766;2023-02-28T07:26:56;1.10;;;0.70;;
44272;SDS011;29964;17.182;-96.766;2023-02-28T07:29:23;1.33;;;0.87;;
44272;SDS011;29964;17.182;-96.766;2023-02-28T07:31:50;1.17;;;0.77;;
44272;SDS011;29964;17.182;-96.766;2023-02-28T07:34:18;0.47;;;0.47;;
44272;SDS011;29964;17.182;-96.766;2023-02-28T07:36:45;2.77;;;0.87;;
44272;SDS011;29964;17.182;-96.766;2023-02-28T07:39:12;0.93;;;0.70;;
44272;SDS011;29964;17.182;-96.766;2023-02-28T07:41:39;1.40;;;0.70;;
44272;SDS011;29964;17.182;-96.766;2023-02-28T07:44:11;0.87;;;0.67;;
44272;SDS011;29964;17.182;-96.766;2023-02-28T07:46:38;0.60;;;0.50;;
44272;SDS011;29964;17.182;-96.766;2023-02-28T07:49:05;0.87;;;0.60;;
44272;SDS011;29964;17.182;-96.766;2023-02-28T07:51:32;1.13;;;0.80;;
44272;SDS011;29964;17.182;-96.766;2023-02-28T07:53:59;1.70;;;0.80;;
44272;SDS011;29964;17.182;-96.766;2023-02-28T07:56:25;2.37;;;1.23;;
44272;SDS011;29964;17.182;-96.766;2023-02-28T07:58:52;1.17;;;0.83;;
44272;SDS011;29964;17.182;-96.766;2023-02-28T08:01:19;1.63;;;0.97;;
44272;SDS011;29964;17.182;-96.766;2023-02-28T08:03:46;1.50;;;0.93;;
44272;SDS011;29964;17.182;-96.766;2023-02-28T08:06:20;4.27;;;1.60;;
44272;SDS011;29964;17.182;-96.766;2023-02-28T08:08:47;1.02;;;0.82;;
44272;SDS011;29964;17.182;-96.766;2023-02-28T08:11:14;1.70;;;0.60;;
44272;SDS011;29964;17.182;-96.766;2023-02-28T08:13:41;1.60;;;0.70;;
44272;SDS011;29964;17.182;-96.766;2023-02-28T08:16:09;4.37;;;1.10;;
44272;SDS011;29964;17.182;-96.766;2023-02-28T08:18:36;1.07;;;0.67;;
44272;SDS011;29964;17.182;-96.766;2023-02-28T08:21:09;0.87;;;0.73;;
44272;SDS011;29964;17.182;-96.766;2023-02-28T08:23:36;0.93;;;0.60;;
44272;SDS011;29964;17.182;-96.766;2023-02-28T08:26:02;5.60;;;0.90;;
44272;SDS011;29964;17.182;-96.766;2023-02-28T08:28:29;1.07;;;0.67;;
44272;SDS011;29964;17.182;-96.766;2023-02-28T08:30:56;0.77;;;0.67;;
44272;SDS011;29964;17.182;-96.766;2023-02-28T08:33:23;1.70;;;1.00;;
44272;SDS011;29964;17.182;-96.766;2023-02-28T08:35:54;1.70;;;0.97;;
44272;SDS011;29964;17.182;-96.766;2023-02-28T08:38:21;1.17;;;0.83;;
44272;SDS011;29964;17.182;-96.766;2023-02-28T08:40:48;0.50;;;0.50;;
44272;SDS011;29964;17.182;-96.766;2023-02-28T08:43:15;2.23;;;0.97;;
44272;SDS011;29964;17.182;-96.766;2023-02-28T08:45:42;6.40;;;1.33;;
44272;SDS011;29964;17.182;-96.766;2023-02-28T08:48:08;1.43;;;1.10;;
44272;SDS011;29964;17.182;-96.766;2023-02-28T08:50:35;1.60;;;1.07;;
44272;SDS011;29964;17.182;-96.766;2023-02-28T08:53:02;1.90;;;1.20;;
44272;SDS011;29964;17.182;-96.766;2023-02-28T08:55:29;0.70;;;0.50;;
44272;SDS011;29964;17.182;-96.766;2023-02-28T08:57:55;0.80;;;0.80;;
44272;SDS011;29964;17.182;-96.766;2023-02-28T09:00:23;1.77;;;1.10;;
44272;SDS011;29964;17.182;-96.766;2023-02-28T09:02:50;2.53;;;1.30;;
44272;SDS011;29964;17.182;-96.766;2023-02-28T09:05:16;1.93;;;1.10;;
44272;SDS011;29964;17.182;-96.766;2023-02-28T09:07:43;1.00;;;0.77;;
44272;SDS011;29964;17.182;-96.766;2023-02-28T09:10:10;1.13;;;0.93;;
44272;SDS011;29964;17.182;-96.766;2023-02-28T09:12:37;2.07;;;1.23;;
44272;SDS011;29964;17.182;-96.766;2023-02-28T09:15:04;0.90;;;0.70;;
44272;SDS011;29964;17.182;-96.766;2023-02-28T09:17:31;1.63;;;1.10;;
44272;SDS011;29964;17.182;-96.766;2023-02-28T09:19:58;1.40;;;0.97;;
44272;SDS011;29964;17.182;-96.766;2023-02-28T09:22:25;0.50;;;0.50;;
44272;SDS011;29964;17.182;-96.766;2023-02-28T09:24:51;2.03;;;1.20;;
44272;SDS011;29964;17.182;-96.766;2023-02-28T09:27:18;1.50;;;0.80;;
44272;SDS011;29964;17.182;-96.766;2023-02-28T09:29:45;0.43;;;0.43;;
44272;SDS011;29964;17.182;-96.766;2023-02-28T09:32:11;1.30;;;0.90;;
44272;SDS011;29964;17.182;-96.766;2023-02-28T09:34:38;1.77;;;0.90;;
44272;SDS011;29964;17.182;-96.766;2023-02-28T09:37:05;0.40;;;0.40;;
44272;SDS011;29964;17.182;-96.766;2023-02-28T09:39:31;10.67;;;1.47;;
44272;SDS011;29964;17.182;-96.766;2023-02-28T09:41:58;1.43;;;0.90;;
44272;SDS011;29964;17.182;-96.766;2023-02-28T09:46:59;0.70;;;0.70;;
44272;SDS011;29964;17.182;-96.766;2023-02-28T09:49:36;4.93;;;1.77;;
44272;SDS011;29964;17.182;-96.766;2023-02-28T09:52:09;1.40;;;1.07;;
44272;SDS011;29964;17.182;-96.766;2023-02-28T09:54:36;2.03;;;0.93;;
44272;SDS011;29964;17.182;-96.766;2023-02-28T09:57:10;2.57;;;1.20;;
44272;SDS011;29964;17.182;-96.766;2023-02-28T10:05:14;4.38;;;1.20;;
44272;SDS011;29964;17.182;-96.766;2023-02-28T10:07:50;1.17;;;0.50;;
44272;SDS011;29964;17.182;-96.766;2023-02-28T10:10:26;1.50;;;1.00;;
44272;SDS011;29964;17.182;-96.766;2023-02-28T10:12:55;0.90;;;0.80;;
44272;SDS011;29964;17.182;-96.766;2023-02-28T10:15:23;3.60;;;1.10;;
44272;SDS011;29964;17.182;-96.766;2023-02-28T10:17:53;1.17;;;1.00;;
44272;SDS011;29964;17.182;-96.766;2023-02-28T10:20:21;1.17;;;0.80;;
44272;SDS011;29964;17.182;-96.766;2023-02-28T10:25:37;1.47;;;1.07;;
44272;SDS011;29964;17.182;-96.766;2023-02-28T10:30:34;0.67;;;0.60;;
44272;SDS011;29964;17.182;-96.766;2023-02-28T10:33:01;0.77;;;0.57;;
44272;SDS011;29964;17.182;-96.766;2023-02-28T10:35:28;1.80;;;1.30;;
44272;SDS011;29964;17.182;-96.766;2023-02-28T10:37:58;1.37;;;0.90;;
44272;SDS011;29964;17.182;-96.766;2023-02-28T10:40:27;2.10;;;1.07;;
44272;SDS011;29964;17.182;-96.766;2023-02-28T10:43:01;0.30;;;0.30;;
44272;SDS011;29964;17.182;-96.766;2023-02-28T10:45:28;1.80;;;1.10;;
44272;SDS011;29964;17.182;-96.766;2023-02-28T10:48:01;0.90;;;0.60;;
44272;SDS011;29964;17.182;-96.766;2023-02-28T10:53:05;2.30;;;1.23;;
44272;SDS011;29964;17.182;-96.766;2023-02-28T10:55:33;1.73;;;1.10;;
44272;SDS011;29964;17.182;-96.766;2023-02-28T10:58:00;2.23;;;1.40;;
44272;SDS011;29964;17.182;-96.766;2023-02-28T11:00:31;2.37;;;1.27;;
44272;SDS011;29964;17.182;-96.766;2023-02-28T11:02:58;2.47;;;0.90;;
44272;SDS011;29964;17.182;-96.766;2023-02-28T11:07:59;0.60;;;0.60;;
44272;SDS011;29964;17.182;-96.766;2023-02-28T11:10:28;0.40;;;0.40;;
44272;SDS011;29964;17.182;-96.766;2023-02-28T11:13:00;1.27;;;0.97;;
44272;SDS011;29964;17.182;-96.766;2023-02-28T11:15:29;0.80;;;0.70;;
44272;SDS011;29964;17.182;-96.766;2023-02-28T11:18:15;1.30;;;0.90;;
44272;SDS011;29964;17.182;-96.766;2023-02-28T11:20:43;1.47;;;0.70;;
44272;SDS011;29964;17.182;-96.766;2023-02-28T11:23:14;1.80;;;0.67;;
44272;SDS011;29964;17.182;-96.766;2023-02-28T11:25:46;0.53;;;0.53;;
44272;SDS011;29964;17.182;-96.766;2023-02-28T11:28:33;1.67;;;0.97;;
44272;SDS011;29964;17.182;-96.766;2023-02-28T11:31:03;1.33;;;0.70;;
44272;SDS011;29964;17.182;-96.766;2023-02-28T11:33:47;1.90;;;1.10;;
44272;SDS011;29964;17.182;-96.766;2023-02-28T11:36:20;0.88;;;0.80;;
44272;SDS011;29964;17.182;-96.766;2023-02-28T11:38:50;2.45;;;1.17;;
44272;SDS011;29964;17.182;-96.766;2023-02-28T11:41:20;1.10;;;0.97;;
44272;SDS011;29964;17.182;-96.766;2023-02-28T11:49:02;1.93;;;1.30;;
44272;SDS011;29964;17.182;-96.766;2023-02-28T11:51:34;5.80;;;2.00;;
44272;SDS011;29964;17.182;-96.766;2023-02-28T11:54:48;1.50;;;1.03;;
44272;SDS011;29964;17.182;-96.766;2023-02-28T11:56:58;2.77;;;1.70;;
44272;SDS011;29964;17.182;-96.766;2023-02-28T12:06:50;3.90;;;2.00;;
44272;SDS011;29964;17.182;-96.766;2023-02-28T12:09:38;2.40;;;1.53;;
44272;SDS011;29964;17.182;-96.766;2023-02-28T12:22:45;2.88;;;1.73;;
44272;SDS011;29964;17.182;-96.766;2023-02-28T12:27:57;1.50;;;1.23;;
44272;SDS011;29964;17.182;-96.766;2023-02-28T12:30:25;0.90;;;0.77;;
44272;SDS011;29964;17.182;-96.766;2023-02-28T12:33:02;2.37;;;1.57;;
44272;SDS011;29964;17.182;-96.766;2023-02-28T12:35:34;2.17;;;1.13;;
44272;SDS011;29964;17.182;-96.766;2023-02-28T12:38:22;1.30;;;1.17;;
44272;SDS011;29964;17.182;-96.766;2023-02-28T12:43:16;4.10;;;1.27;;
44272;SDS011;29964;17.182;-96.766;2023-02-28T12:45:50;1.23;;;0.97;;
44272;SDS011;29964;17.182;-96.766;2023-02-28T12:49:00;1.37;;;0.97;;
44272;SDS011;29964;17.182;-96.766;2023-02-28T12:51:07;2.17;;;1.33;;
44272;SDS011;29964;17.182;-96.766;2023-02-28T12:56:09;2.90;;;1.23;;
44272;SDS011;29964;17.182;-96.766;2023-02-28T12:58:41;3.28;;;1.50;;
44272;SDS011;29964;17.182;-96.766;2023-02-28T13:09:26;3.47;;;1.83;;
44272;SDS011;29964;17.182;-96.766;2023-02-28T13:11:43;0.70;;;0.67;;
44272;SDS011;29964;17.182;-96.766;2023-02-28T13:14:29;1.70;;;1.13;;
44272;SDS011;29964;17.182;-96.766;2023-02-28T13:19:24;1.77;;;1.30;;
44272;SDS011;29964;17.182;-96.766;2023-02-28T13:21:51;0.87;;;0.77;;
44272;SDS011;29964;17.182;-96.766;2023-02-28T13:34:31;3.03;;;1.57;;
44272;SDS011;29964;17.182;-96.766;2023-02-28T13:45:34;7.60;;;3.10;;
44272;SDS011;29964;17.182;-96.766;2023-02-28T13:52:51;65.43;;;6.22;;
44272;SDS011;29964;17.182;-96.766;2023-02-28T13:58:19;7.70;;;2.90;;
44272;SDS011;29964;17.182;-96.766;2023-02-28T14:06:07;15.97;;;3.50;;
44272;SDS011;29964;17.182;-96.766;2023-02-28T14:11:08;5.00;;;2.10;;
44272;SDS011;29964;17.182;-96.766;2023-02-28T14:16:05;3.57;;;2.20;;
44272;SDS011;29964;17.182;-96.766;2023-02-28T14:18:36;3.57;;;2.20;;
44272;SDS011;29964;17.182;-96.766;2023-02-28T14:21:25;4.33;;;2.37;;
44272;SDS011;29964;17.182;-96.766;2023-02-28T14:32:21;9.60;;;3.20;;
44272;SDS011;29964;17.182;-96.766;2023-02-28T14:36:52;9.10;;;3.03;;
44272;SDS011;29964;17.182;-96.766;2023-02-28T14:39:21;7.47;;;3.10;;
44272;SDS011;29964;17.182;-96.766;2023-02-28T14:41:48;4.47;;;2.07;;
44272;SDS011;29964;17.182;-96.766;2023-02-28T14:44:22;4.70;;;2.30;;
44272;SDS011;29964;17.182;-96.766;2023-02-28T14:46:50;2.70;;;1.70;;
44272;SDS011;29964;17.182;-96.766;2023-02-28T14:49:21;7.13;;;2.87;;
44272;SDS011;29964;17.182;-96.766;2023-02-28T14:51:50;3.37;;;2.10;;
44272;SDS011;29964;17.182;-96.766;2023-02-28T14:54:18;4.20;;;2.90;;
44272;SDS011;29964;17.182;-96.766;2023-02-28T14:56:49;5.87;;;2.43;;
44272;SDS011;29964;17.182;-96.766;2023-02-28T14:59:34;6.13;;;2.63;;
44272;SDS011;29964;17.182;-96.766;2023-02-28T15:02:21;13.10;;;4.27;;
44272;SDS011;29964;17.182;-96.766;2023-02-28T15:04:58;5.63;;;3.17;;
44272;SDS011;29964;17.182;-96.766;2023-02-28T15:07:26;7.63;;;3.57;;
44272;SDS011;29964;17.182;-96.766;2023-02-28T15:10:20;4.77;;;3.20;;
44272;SDS011;29964;17.182;-96.766;2023-02-28T15:12:49;10.00;;;4.73;;
44272;SDS011;29964;17.182;-96.766;2023-02-28T15:15:17;12.37;;;4.60;;
44272;SDS011;29964;17.182;-96.766;2023-02-28T15:17:46;11.53;;;4.37;;
44272;SDS011;29964;17.182;-96.766;2023-02-28T15:20:16;6.40;;;3.77;;
44272;SDS011;29964;17.182;-96.766;2023-02-28T15:22:43;10.00;;;4.43;;
44272;SDS011;29964;17.182;-96.766;2023-02-28T15:25:13;10.70;;;4.30;;
44272;SDS011;29964;17.182;-96.766;2023-02-28T15:27:45;5.87;;;3.53;;
44272;SDS011;29964;17.182;-96.766;2023-02-28T15:30:17;16.80;;;4.80;;
44272;SDS011;29964;17.182;-96.766;2023-02-28T15:32:44;6.57;;;3.67;;
44272;SDS011;29964;17.182;-96.766;2023-02-28T15:35:19;4.50;;;3.23;;
44272;SDS011;29964;17.182;-96.766;2023-02-28T15:37:48;8.20;;;3.60;;
44272;SDS011;29964;17.182;-96.766;2023-02-28T15:40:23;11.27;;;3.10;;
44272;SDS011;29964;17.182;-96.766;2023-02-28T15:43:06;10.03;;;2.47;;
44272;SDS011;29964;17.182;-96.766;2023-02-28T15:45:35;6.80;;;3.38;;
44272;SDS011;29964;17.182;-96.766;2023-02-28T15:48:25;4.33;;;3.07;;
44272;SDS011;29964;17.182;-96.766;2023-02-28T15:54:19;9.77;;;2.97;;
44272;SDS011;29964;17.182;-96.766;2023-02-28T15:56:29;4.43;;;3.07;;
44272;SDS011;29964;17.182;-96.766;2023-02-28T15:58:57;5.07;;;3.27;;
44272;SDS011;29964;17.182;-96.766;2023-02-28T16:01:26;5.77;;;3.07;;
44272;SDS011;29964;17.182;-96.766;2023-02-28T16:03:56;16.03;;;3.20;;
44272;SDS011;29964;17.182;-96.766;2023-02-28T16:08:53;5.60;;;3.20;;
44272;SDS011;29964;17.182;-96.766;2023-02-28T16:11:22;9.30;;;4.00;;
44272;SDS011;29964;17.182;-96.766;2023-02-28T16:13:49;5.50;;;3.17;;
44272;SDS011;29964;17.182;-96.766;2023-02-28T16:16:20;8.67;;;2.90;;
44272;SDS011;29964;17.182;-96.766;2023-02-28T16:18:47;4.63;;;3.03;;
44272;SDS011;29964;17.182;-96.766;2023-02-28T16:21:14;12.20;;;3.17;;
44272;SDS011;29964;17.182;-96.766;2023-02-28T16:23:41;5.43;;;3.03;;
44272;SDS011;29964;17.182;-96.766;2023-02-28T16:26:08;3.67;;;2.57;;
44272;SDS011;29964;17.182;-96.766;2023-02-28T16:28:38;5.83;;;2.73;;
44272;SDS011;29964;17.182;-96.766;2023-02-28T16:31:05;4.88;;;2.50;;
44272;SDS011;29964;17.182;-96.766;2023-02-28T16:33:32;6.87;;;3.03;;
44272;SDS011;29964;17.182;-96.766;2023-02-28T16:35:59;14.50;;;3.55;;
44272;SDS011;29964;17.182;-96.766;2023-02-28T16:38:26;4.47;;;2.78;;
44272;SDS011;29964;17.182;-96.766;2023-02-28T16:40:53;3.40;;;2.15;;
44272;SDS011;29964;17.182;-96.766;2023-02-28T16:43:22;2.38;;;1.63;;